DRZA/AJY METAR and TAF weather

Enter ICAO airport designator
Station Type Date Time Source
DRZA METAR 2024/06/15 14:00 UTC NOAA

DRZA 151400Z 34008KT 9999 SCT040TCU 41/15 Q1009


Station Type Date Time Source
DRZA Decoded METAR 2024/06/15 14:00 UTC NOAA

Agadez, Niger (DRZA) 16-58N 007-59E 502M
Jun 15, 2024 - 10:00 AM EDT / 2024.06.15 1400 UTC
Wind: from the NNW (340 degrees) at 9 MPH (8 KT):0
Visibility: greater than 7 mile(s):0
Sky conditions: partly cloudy
Weather: Towering cumulus clouds observed
Temperature: 105 F (41 C)
Heat index: 104.9 F (40.5 C):1
Dew Point: 59 F (15 C)
Relative Humidity: 21%
Pressure (altimeter): 29.80 in. Hg (1009 hPa)
ob: DRZA 151400Z 34008KT 9999 SCT040TCU 41/15 Q1009
cycle: 14

Station Type Date Time Source
DRZA TAF 2024/06/15 12:23 UTC NOAA